• Join FlightAware (Why Join?)
  • Login
  • US Flag 
01:12AM EDT


 

Airport Tracker/Info


-or-


 

Live Flight TrackerFlight Track Log ✈ ASQ5415 ✈ 25-Sep-2013 ✈ KMOB - KATL

Flight Track Log - Related Links

Times and Time Zones

All times are in EDT time to prevent confusion due to time zone crossing. See the ASQ5415 flight status page for this flight to view local times or setup timezone preferences in your user account.

Time Position Orientation Groundspeed Altitude Reporting Facility
EDT Latitude Longitude Course Direction KTS MPH feet Rate Location/Type
07:12AM 30.7128 -88.2642 North 153 176 1,200  Level Houston Center
07:13AM 30.7606 -88.2583 North 193 222 2,700 1,620 Climbing Houston Center
07:14AM 30.8231 -88.2258 24° Northeast 240 276 4,500 1,860 Climbing Houston Center
07:15AM 30.8769 -88.1575 47° Northeast 284 327 6,500 1,980 Climbing Houston Center
07:16AM 30.9303 -88.0844 50° Northeast 298 343 8,600 1,860 Climbing Houston Center
07:17AM 30.9883 -88.0092 48° Northeast 313 360 10,400 1,380 Climbing Houston Center
07:18AM 31.0647 -87.9072 49° Northeast 349 402 11,500 1,080 Climbing Houston Center
07:19AM 31.1328 -87.8158 49° Northeast 373 429 12,600 1,320 Climbing Houston Center
07:20AM 31.2014 -87.7242 49° Northeast 376 433 14,200 1,380 Climbing Houston Center
07:21AM 31.2692 -87.6319 49° Northeast 374 430 15,400 1,140 Climbing Houston Center
07:22AM 31.3369 -87.5392 49° Northeast 376 433 16,600 1,080 Climbing Houston Center
07:23AM 31.4069 -87.4453 49° Northeast 383 441 17,600 1,020 Climbing Houston Center
07:24AM 31.4761 -87.3492 50° Northeast 385 443 18,700 1,020 Climbing Houston Center
07:25AM 31.5464 -87.2544 49° Northeast 385 443 19,700 960 Climbing Houston Center
07:26AM 31.6158 -87.1600 49° Northeast 384 442 20,700 840 Climbing Houston Center
07:27AM 31.6858 -87.0628 50° Northeast 388 447 21,400 660 Climbing Houston Center
07:28AM 31.7569 -86.9642 50° Northeast 395 455 22,100 660 Climbing Houston Center
07:29AM 31.8300 -86.8636 49° Northeast 403 464 22,800 420 Climbing Houston Center
07:30AM 31.9050 -86.7625 49° Northeast 410 472 23,000 60 Climbing Houston Center
07:31AM 31.9944 -86.6494 47° Northeast 424 488 23,000  Level Atlanta Center
07:32AM 32.0739 -86.5414 49° Northeast 436 502 23,000  Level Atlanta Center
07:33AM 32.1556 -86.4283 50° Northeast 441 507 23,000  Level Atlanta Center
07:34AM 32.2244 -86.3222 52° Northeast 447 514 23,000  Level Atlanta Center
07:35AM 32.3164 -86.1967 49° Northeast 452 520 23,000  Level Atlanta Center
07:36AM 32.3997 -86.0831 49° Northeast 452 520 23,000  Level Atlanta Center
07:37AM 32.4850 -85.9694 48° Northeast 452 520 23,000  Level Atlanta Center
07:38AM 32.5850 -85.8383 48° Northeast 466 536 23,000  Level Atlanta Center
07:39AM 32.6703 -85.7217 49° Northeast 466 536 23,000  Level Atlanta Center
07:40AM 32.7531 -85.6072 49° Northeast 466 536 23,000 -600 Level Atlanta Center
07:41AM 32.8422 -85.4925 47° Northeast 466 536 21,900 -1,920 Descending Atlanta Center
07:42AM 32.9228 -85.3778 50° Northeast 460 529 19,200 -2,700 Descending Atlanta Center
07:43AM 33.0011 -85.2747 48° Northeast 441 507 16,500 1,860 Descending Atlanta Center
07:44AM 33.0644 -85.1939 47° Northeast 413 475 23,000 -2,100 Climbing Atlanta Center
07:45AM 33.1342 -85.1031 47° Northeast 373 429 12,300 -5,520 Descending Atlanta Center
07:46AM 33.1933 -85.0219 49° Northeast 338 389 12,000 -240 Descending Atlanta Center
07:47AM 33.2567 -84.9406 47° Northeast 325 374 11,900 -840 Descending Atlanta Center
07:48AM 33.3467 -84.9117 15° North 300 345 10,400 -1,500 Descending Atlanta Center
07:49AM 33.4303 -84.9000 North 300 345 8,900 -1,440 Descending Atlanta Center
07:50AM 33.5117 -84.8858 North 295 339 7,600 -960 Descending Atlanta Center
07:51AM 33.5931 -84.8742 North 295 339 7,000 -360 Descending Atlanta Center
07:52AM 33.6333 -84.8333 40° Northeast 276 318 7,100 -600 Climbing Atlanta TRACON
07:53AM 33.6333 -84.7500 90° East 248 285 6,100 -1,260 Descending Atlanta TRACON
07:54AM 33.6333 -84.6667 90° East 244 281 4,600 -1,380 Descending Atlanta TRACON
07:55AM 33.6333 -84.5833 90° East 218 251 3,400 -1,140 Descending Atlanta TRACON
07:56AM 33.6333 -84.5333 90° East 177 204 2,400 -900 Descending Atlanta TRACON
07:57AM 33.6333 -84.4833 90° East 141 162 1,600 -840 Descending Atlanta TRACON
07:59AM 33.6367 -84.4279 90° East  Level Estimated
08:06AM 33.6367 -84.4279 90° East  Level Estimated